• Join FlightAware (Why Join?)
  • Login
  • US Flag 
01:20AM EDT


 

Airport Tracker/Info


-or-


 

Live Flight TrackerFlight Track Log ✈ EMD21 ✈ 22-Jul-2013 ✈ KHOU - KMLC

Flight Track Log - Related Links

Times and Time Zones

All times are in EDT time to prevent confusion due to time zone crossing. See the EMD21 flight status page for this flight to view local times or setup timezone preferences in your user account.

Time Position Orientation Groundspeed Altitude Reporting Facility
EDT Latitude Longitude Course Direction KTS MPH feet Rate Location/Type
08:15AM 29.6350 -95.2844 32° Northeast 131 151 600  Level Houston Center
08:17AM 29.6681 -95.2606 32° Northeast 164 189 2,200 1,140 Climbing Houston Center
08:18AM 29.7169 -95.2533 North 171 197 3,300 1,260 Climbing Houston Center
08:19AM 29.7619 -95.2547 358° North 163 188 4,800 1,320 Climbing Houston Center
08:20AM 29.8014 -95.2772 334° Northwest 159 183 6,100 1,260 Climbing Houston Center
08:21AM 29.8511 -95.3039 335° Northwest 173 199 7,500 1,080 Climbing Houston Center
08:22AM 29.8867 -95.3194 339° North 168 193 8,400 960 Climbing Houston Center
08:23AM 29.9311 -95.3414 337° Northwest 172 198 9,500 1,200 Climbing Houston Center
08:24AM 29.9847 -95.3708 335° Northwest 176 203 10,900 1,140 Climbing Houston Center
08:25AM 30.0314 -95.3939 337° Northwest 180 207 11,900 840 Climbing Houston Center
08:26AM 30.0819 -95.4047 349° North 187 215 12,700 720 Climbing Houston Center
08:27AM 30.1383 -95.4056 359° North 198 228 13,400 720 Climbing Houston Center
08:28AM 30.1944 -95.4114 355° North 202 232 14,200 600 Climbing Houston Center
08:29AM 30.2508 -95.4142 358° North 202 232 14,700 660 Climbing Houston Center
08:30AM 30.3058 -95.4217 353° North 200 230 15,600 600 Climbing Houston Center
08:31AM 30.3606 -95.4242 358° North 196 226 16,000 240 Climbing Houston Center
08:32AM 30.4342 -95.4256 359° North 217 250 16,100  Climbing Houston Center
08:33AM 30.4983 -95.4319 355° North 230 265 16,100  Level Houston Center
08:34AM 30.5642 -95.4347 358° North 236 272 16,100  Level Houston Center
08:35AM 30.6294 -95.4411 355° North 236 272 16,100  Level Houston Center
08:36AM 30.7022 -95.4519 353° North 236 272 16,100 -60 Level Houston Center
08:37AM 30.7683 -95.4508 North 236 272 16,000  Descending Houston Center
08:38AM 30.8356 -95.4550 357° North 239 275 16,100  Climbing Houston Center
08:39AM 30.9008 -95.4667 351° North 238 274 16,100 -60 Level Houston Center
08:40AM 30.9683 -95.4686 359° North 241 277 16,000  Descending Houston Center
08:41AM 31.0353 -95.4706 359° North 239 275 16,100  Climbing Houston Center
08:42AM 31.1014 -95.4797 353° North 239 275 16,000  Descending Houston Center
08:43AM 31.1683 -95.4828 358° North 240 276 16,100  Climbing Houston Center
08:44AM 31.2481 -95.4875 357° North 238 274 16,100 -60 Level Houston Center
08:45AM 31.3147 -95.4956 354° North 238 274 16,000  Descending Houston Center
08:46AM 31.3817 -95.4975 359° North 241 277 16,100  Climbing Houston Center
08:47AM 31.4475 -95.5033 356° North 237 273 16,100 -60 Level Houston Center
08:48AM 31.5133 -95.5119 354° North 237 273 16,000  Descending Houston Center
08:49AM 31.5800 -95.5125 360° North 238 274 16,100  Climbing Houston Center
08:50AM 31.6472 -95.5172 357° North 240 276 16,000 -120 Descending Houston Center
08:51AM 31.7003 -95.5283 350° North 232 267 15,900  Descending Fort Worth Center
08:52AM 31.7650 -95.5319 357° North 232 267 16,000  Climbing Fort Worth Center
08:53AM 31.8319 -95.5356 357° North 237 273 16,000  Level Fort Worth Center
08:54AM 31.8947 -95.5439 354° North 237 273 16,000  Level Fort Worth Center
08:55AM 31.9614 -95.5450 359° North 237 273 16,000 -60 Level Fort Worth Center
08:56AM 32.0264 -95.5511 355° North 237 273 15,900 -60 Descending Fort Worth Center
08:57AM 32.0911 -95.5569 356° North 237 273 15,900  Level Fort Worth Center
08:58AM 32.1581 -95.5606 357° North 237 273 16,000  Climbing Fort Worth Center
08:59AM 32.2083 -95.5669 354° North 237 273 15,900  Descending Fort Worth Center
09:00AM 32.2792 -95.5731 356° North 237 273 16,000  Climbing Fort Worth Center
09:01AM 32.3461 -95.5739 359° North 231 266 16,000  Level Fort Worth Center
09:02AM 32.4089 -95.5825 353° North 237 273 16,000 -60 Level Fort Worth Center
09:03AM 32.4736 -95.5886 355° North 237 273 15,900 -60 Descending Fort Worth Center
09:04AM 32.5383 -95.5897 359° North 237 273 15,900  Level Fort Worth Center
09:05AM 32.6031 -95.5958 355° North 237 273 16,000  Climbing Fort Worth Center
09:06AM 32.6700 -95.6044 354° North 237 273 16,000  Level Fort Worth Center
09:07AM 32.7306 -95.6058 359° North 237 273 16,000  Level Fort Worth Center
09:08AM 32.8081 -95.6139 355° North 237 273 16,000 -60 Level Fort Worth Center
09:09AM 32.8667 -95.6178 357° North 237 273 15,900 -60 Descending Fort Worth Center
09:10AM 32.9397 -95.6214 358° North 237 273 15,900  Level Fort Worth Center
09:11AM 32.9981 -95.6275 355° North 237 273 15,900  Level Fort Worth Center
09:12AM 33.0733 -95.6358 355° North 237 273 15,900  Level Fort Worth Center
09:13AM 33.1319 -95.6372 359° North 237 273 16,000  Climbing Fort Worth Center
09:14AM 33.2031 -95.6458 354° North 237 273 16,000  Level Fort Worth Center
09:15AM 33.2594 -95.6497 357° North 237 273 16,000  Level Fort Worth Center
09:16AM 33.3306 -95.6533 358° North 237 273 16,000  Level Fort Worth Center
09:17AM 33.3869 -95.6594 355° North 237 273 16,000 -60 Level Fort Worth Center
09:18AM 33.4558 -95.6631 357° North 232 267 15,900  Descending Fort Worth Center
09:19AM 33.5142 -95.6669 357° North 232 267 16,000  Climbing Fort Worth Center
09:20AM 33.5750 -95.6758 353° North 226 260 15,900 -60 Descending Fort Worth Center
09:21AM 33.6375 -95.6794 357° North 226 260 15,900  Level Fort Worth Center
09:22AM 33.7044 -95.6806 359° North 221 254 15,900 -420 Level Fort Worth Center
09:23AM 33.7714 -95.6894 354° North 226 260 15,100 -900 Descending Fort Worth Center
09:24AM 33.8422 -95.6956 356° North 244 281 14,100 -900 Descending Fort Worth Center
09:25AM 33.9133 -95.6967 359° North 255 293 13,300 -780 Descending Fort Worth Center
09:26AM 33.9803 -95.7078 352° North 250 288 12,600 -600 Descending Fort Worth Center
09:27AM 34.0492 -95.7139 356° North 245 282 12,100 -600 Descending Fort Worth Center
09:28AM 34.1161 -95.7178 357° North 245 282 11,400 -660 Descending Fort Worth Center
09:29AM 34.1850 -95.7289 352° North 240 276 10,800 -780 Descending Fort Worth Center
09:30AM 34.2561 -95.7325 358° North 240 276 9,900 -900 Descending Fort Worth Center
09:31AM 34.3292 -95.7311 North 246 283 9,000 -840 Descending Fort Worth Center
09:32AM 34.3939 -95.7475 348° North 252 290 8,300 -780 Descending Fort Worth Center
09:33AM 34.4628 -95.7536 356° North 247 284 7,500 -720 Descending Fort Worth Center
09:34AM 34.5317 -95.7497 North 247 284 6,900 -900 Descending Fort Worth Center
09:35AM 34.6006 -95.7611 352° North 247 284 5,800 -1,080 Descending Fort Worth Center
09:36AM 34.6694 -95.7622 359° North 247 284 4,800 -1,020 Descending Fort Worth Center